Portada
METAR-TAF:

METAR-TAF

Aeroports :

Aeroflex-Andover Airport

Andover, Nova Jersey, Estats Units d'Amèrica

latitud: 41-00-32N, longitud: 074-44-12W, altitud: 177 m

Observació

L'informe es va fer fa 6 minuts, a les 02:54 UTC
Vent calma
Temperatura 19°C
Humitat 100%
Pressió 1013 hPa

METAR: K12N 190254Z AUTO 00000KT 19/19 A2991 RMK AO1 SLP123 T01940189 53009

Hora: 23:00 (03:00 UTC)


TAF: manca

Observacions i pronòstics meteorològics de més de 4000 aeroports (METAR i TAF).

Les estacions disponibles són els punts grocs i vermells al mapa.

Posi el ratolí al punt desitjat per veure el nom de l'estació.

Feu clic per veure les observacions i els pronòstics meteorològics.

Per canviar el mapa: feu clic els botons verds amb una creu de color negre per apropar; al botó verd amb un guió per allunyar la imatge; o en les fletxes verdes per a mapes adjacents.


METAR-TAF: